This is the latest recevied weather packets stored in our database for station/object UR7D-12. If no packets are shown the sender has not sent any weather packets the latest 10 day(s).
| Time | Temp. | Humidity | Pressure | Rain* | Wind** | Luminosity | Snow |
|---|---|---|---|---|---|---|---|
| 1777606460 | 1.67° C | 63% | 1000.1 hPa | 0 mm | - | - | - |
| 1777606160 | 1.67° C | 63% | 1000.1 hPa | 0 mm | - | - | - |
| 1777605861 | 1.67° C | 64% | 1000.1 hPa | 0 mm | - | - | - |
| 1777605560 | 1.67° C | 64% | 1000.1 hPa | 0 mm | - | - | - |
| 1777605260 | 1.67° C | 65% | 1000.1 hPa | 0 mm | - | - | - |
| 1777604959 | 1.67° C | 65% | 1000.1 hPa | 0 mm | - | - | - |
| 1777604660 | 1.67° C | 65% | 1000.1 hPa | 0 mm | - | - | - |
| 1777604359 | 1.67° C | 65% | 1000.1 hPa | 0 mm | - | - | - |
| 1777604059 | 1.11° C | 66% | 1000.1 hPa | 0 mm | - | - | - |
| 1777603759 | 1.11° C | 65% | 1000.1 hPa | 0 mm | - | - | - |
| 1777603459 | 1.11° C | 65% | 1000.1 hPa | 0 mm | - | - | - |
| 1777603159 | 1.11° C | 65% | 1000 hPa | 0 mm | - | - | - |
| 1777602860 | 1.67° C | 65% | 1000.1 hPa | 0 mm | - | - | - |
| 1777602558 | 1.67° C | 65% | 1000.1 hPa | 0 mm | - | - | - |
| 1777602257 | 1.67° C | 65% | 1000 hPa | 0 mm | - | - | - |
| 1777601957 | 1.67° C | 65% | 1000 hPa | 0 mm | - | - | - |
| 1777601657 | 1.67° C | 65% | 1000.1 hPa | 0 mm | - | - | - |
| 1777601356 | 1.67° C | 65% | 1000.1 hPa | 0 mm | - | - | - |
| 1777601056 | 1.67° C | 64% | 1000.1 hPa | 0 mm | - | - | - |
| 1777600755 | 2.22° C | 63% | 1000.1 hPa | 0 mm | - | - | - |
| 1777600154 | 1.67° C | 64% | 1000.2 hPa | 0 mm | - | - | - |
| 1777586942 | 6.11° C | 46% | 1000.2 hPa | 0 mm | - | - | - |
| 1777586042 | 6.11° C | 46% | 1000.2 hPa | 0 mm | - | - | - |
| 1777584841 | 5.56° C | 48% | 999.9 hPa | 0 mm | - | - | - |
| 1777584541 | 6.11° C | 46% | 999.9 hPa | 0 mm | - | - | - |
* Rain latest hour (hover to see other rain measurements)
** Current wind speed in m/s (hover to see current wind gust speed)